Airfield :
LOGIN :

Register | Disclaimer

   EN    FR    IT 

 










Legend :    VFR   Marginal VFR   IFR   Intensive IFR   Very Intensive IFR
Visi :
Ceiling :
>= 8 km
>= 3000ft
5 to 8 km
1000 to 3000 ft
1500m to 5 km
500 to 1000 ft
800 to 1500m
200 to 500 ft
< 800m
< 200 ft
Symbols :   Thunderstorms  Fog  Heavy snow  Heavy precipitations  Wind > 20 kt
SIGMETs :     Misc.  Thunderstorms  Icing  Turbulence  Mountain Waves  Volcanic Ashes






- Airport Elevation : 405 ft
- IATA code : JMK


LGMK - Mikonos

CURRENT METAR :
  • 221520Z 00000KT 9999 SCT018 SCT025 17/14 Q1014

EXPIRED METARs :
  • 221450Z 00000KT 9999 FEW018TCU SCT025 18/15 Q1014
  • 221420Z VRB03KT 9999 FEW018TCU SCT025 18/15 Q1014
  • 221350Z VRB03KT 9999 FEW018TCU SCT025 18/15 Q1014
  • 221320Z 00000KT 9999 -RA FEW018TCU SCT025 18/16 Q1014
  • 221250Z 35004KT 9999 -RA FEW018TCU SCT025 19/16 Q1014

TAF TAF LGMK
Valid from the 22 at 15:00 until the 23 at 00:00 UTC


221400Z 2215/2224 18008KT 9999 FEW018 SCT020
PROB30
TEMPO 2215/2218 5000 RA FEW018TCU BKN025



MET'MAP, your aeronautical weather chart ! - Copyright ORBIFLY December 2007 - Disclaimer

ORBIFLY MET'MAP TEAM :

Programming & Development : Alexandra Zaïnal
Concept & Development : Baudouin d'Aumeries
Co-Development & Prog : Marc-Olivier Méhu
Technical & hardware support : Manuel Goepfert

Contact : metmap@orbifly.com




SOURCES & CREDITS :

   NOAA